Time;durP1;ratioP1;P1;durP2;ratioP2;P2;SDS_P1;SDS_P2;PMS_P1;PMS_P2;Temp;Humidity;BMP_temperature;BMP_pressure;BME280_temperature;BME280_humidity;BME280_pressure;Samples;Min_cycle;Max_cycle;Signal;HPM_P1;HPM_P2
2022/08/19 00:01:27;;;;;;;4.93;3.30;;;21.50;71.70;;;;;;4969800;28;20208;-78
2022/08/19 00:03:53;;;;;;;4.03;3.15;;;21.50;71.80;;;;;;4967813;28;20058;-78
2022/08/19 00:06:19;;;;;;;4.10;3.03;;;21.40;71.90;;;;;;4947448;28;20125;-78
2022/08/19 00:08:45;;;;;;;4.25;3.17;;;21.40;72.00;;;;;;4985794;28;20035;-78
2022/08/19 00:11:11;;;;;;;4.10;3.03;;;21.40;72.20;;;;;;4965964;28;20031;-78
2022/08/19 00:13:38;;;;;;;3.75;3.00;;;21.30;72.30;;;;;;4982905;28;20030;-78
2022/08/19 00:16:05;;;;;;;4.43;3.25;;;21.20;72.30;;;;;;4956687;28;20032;-78
2022/08/19 00:18:33;;;;;;;4.25;3.35;;;21.20;72.40;;;;;;4960337;28;20022;-78
2022/08/19 00:20:59;;;;;;;4.57;3.10;;;21.20;72.60;;;;;;4956849;28;20031;-78
2022/08/19 00:23:25;;;;;;;4.10;2.95;;;21.20;72.60;;;;;;4958062;28;20058;-78
2022/08/19 00:25:51;;;;;;;4.65;3.13;;;21.20;72.60;;;;;;4982292;28;20584;-78
2022/08/19 00:28:18;;;;;;;4.05;3.00;;;21.10;72.70;;;;;;4984984;28;20042;-78
2022/08/19 00:30:44;;;;;;;4.72;3.50;;;21.10;72.80;;;;;;4972948;28;20090;-78
2022/08/19 00:33:10;;;;;;;5.17;3.40;;;21.10;72.80;;;;;;4972458;28;20426;-78
2022/08/19 00:35:38;;;;;;;4.90;3.38;;;21.10;72.90;;;;;;4948662;28;20031;-78
2022/08/19 00:38:06;;;;;;;4.90;3.38;;;21.00;73.00;;;;;;4949440;28;20521;-78
2022/08/19 00:40:32;;;;;;;4.32;3.30;;;21.00;73.10;;;;;;4966626;28;20085;-78
2022/08/19 00:42:58;;;;;;;4.70;3.03;;;21.00;73.10;;;;;;4966702;28;20342;-78
2022/08/19 00:45:26;;;;;;;5.28;3.50;;;21.00;73.10;;;;;;4985332;28;20479;-78
2022/08/19 00:47:52;;;;;;;4.32;3.30;;;20.90;73.20;;;;;;4973228;28;20049;-78
2022/08/19 00:50:21;;;;;;;5.22;3.22;;;20.90;73.20;;;;;;4961465;28;20078;-78
2022/08/19 00:52:50;;;;;;;3.90;2.97;;;20.90;73.40;;;;;;4961788;28;20098;-78
2022/08/19 00:55:21;;;;;;;4.05;3.25;;;20.90;73.50;;;;;;4971015;28;20062;-78
2022/08/19 00:57:57;;;;;;;4.18;3.03;;;20.80;73.60;;;;;;4951480;28;20164;-78
2022/08/19 01:00:25;;;;;;;4.60;3.25;;;20.80;73.60;;;;;;4983993;28;20090;-78
2022/08/19 01:02:52;;;;;;;4.78;3.40;;;20.80;73.60;;;;;;4974183;28;20030;-78
2022/08/19 01:05:24;;;;;;;5.90;3.70;;;20.70;73.60;;;;;;4979574;28;20076;-78
2022/08/19 01:07:50;;;;;;;5.32;3.60;;;20.70;74.00;;;;;;4966272;28;20121;-78
2022/08/19 01:10:20;;;;;;;5.97;3.42;;;20.70;73.80;;;;;;4985313;28;20150;-78
2022/08/19 01:12:47;;;;;;;5.32;3.70;;;20.70;74.00;;;;;;4984298;28;20093;-78
2022/08/19 01:15:16;;;;;;;5.32;3.72;;;20.60;74.00;;;;;;4946105;28;20085;-78
2022/08/19 01:17:44;;;;;;;5.70;3.87;;;20.60;74.10;;;;;;4967383;28;20022;-78
2022/08/19 01:20:17;;;;;;;5.25;3.88;;;20.60;74.20;;;;;;4980902;28;20108;-78
2022/08/19 01:22:53;;;;;;;5.72;3.95;;;20.60;74.40;;;;;;4947628;28;20177;-78
2022/08/19 01:25:24;;;;;;;5.88;3.88;;;20.60;74.90;;;;;;4984166;28;20026;-78
2022/08/19 01:27:51;;;;;;;6.60;3.97;;;20.50;74.50;;;;;;4964205;28;20133;-78
2022/08/19 01:30:24;;;;;;;7.47;4.10;;;20.50;74.30;;;;;;4976925;28;20336;-78
2022/08/19 01:32:52;;;;;;;5.90;3.92;;;20.50;74.60;;;;;;4984314;28;20037;-78
2022/08/19 01:35:18;;;;;;;6.18;3.80;;;20.50;74.50;;;;;;4961423;28;20964;-78
2022/08/19 01:37:55;;;;;;;5.53;3.90;;;20.40;74.40;;;;;;4979342;28;20879;-78
2022/08/19 01:40:23;;;;;;;7.35;3.92;;;20.40;74.60;;;;;;4969135;28;20042;-78
2022/08/19 01:42:51;;;;;;;5.60;3.83;;;20.40;74.60;;;;;;4951239;28;20031;-78
2022/08/19 01:45:19;;;;;;;6.68;4.57;;;20.40;75.40;;;;;;4965594;28;20093;-78
2022/08/19 01:47:45;;;;;;;9.45;5.35;;;20.30;74.70;;;;;;4973350;28;20030;-78
2022/08/19 01:50:12;;;;;;;10.55;5.72;;;20.30;74.80;;;;;;4981034;28;20097;-78
2022/08/19 01:52:40;;;;;;;11.57;6.43;;;20.30;75.10;;;;;;4963440;28;20156;-78
2022/08/19 01:55:10;;;;;;;13.07;6.80;;;20.30;75.40;;;;;;4970027;28;20022;-78
2022/08/19 01:57:37;;;;;;;12.65;7.07;;;20.20;75.70;;;;;;4987283;28;20033;-78
2022/08/19 02:00:08;;;;;;;11.52;6.47;;;20.30;75.80;;;;;;4959004;28;20026;-78
2022/08/19 02:02:33;;;;;;;13.75;7.13;;;20.30;76.10;;;;;;4969551;28;20030;-78
2022/08/19 02:04:59;;;;;;;13.93;7.70;;;20.30;75.90;;;;;;4987520;28;20400;-78
2022/08/19 02:07:25;;;;;;;14.47;7.70;;;20.30;76.10;;;;;;4952593;28;20503;-78
2022/08/19 02:09:51;;;;;;;14.77;7.80;;;20.30;76.20;;;;;;4986617;28;20045;-78
2022/08/19 02:12:17;;;;;;;14.25;7.45;;;20.30;76.30;;;;;;4938896;28;20222;-78
2022/08/19 02:14:43;;;;;;;16.35;8.40;;;20.30;76.40;;;;;;4959225;28;20077;-78
2022/08/19 02:17:09;;;;;;;15.00;7.50;;;20.30;76.40;;;;;;4982773;28;20023;-78
2022/08/19 02:19:34;;;;;;;14.25;7.72;;;20.30;76.50;;;;;;4987301;28;20050;-78
2022/08/19 02:22:00;;;;;;;14.70;8.05;;;20.40;76.60;;;;;;4981043;28;20562;-78
2022/08/19 02:24:27;;;;;;;15.37;7.50;;;20.30;76.40;;;;;;4947761;28;20138;-78
2022/08/19 02:26:53;;;;;;;14.48;7.45;;;20.40;76.60;;;;;;4967359;28;20037;-78
2022/08/19 02:29:19;;;;;;;14.38;7.90;;;20.40;76.60;;;;;;4950076;28;20253;-78
2022/08/19 02:31:45;;;;;;;14.95;8.07;;;20.30;76.60;;;;;;4980805;28;20022;-78
2022/08/19 02:34:11;;;;;;;16.77;8.83;;;20.40;76.70;;;;;;4983951;28;20022;-78
2022/08/19 02:36:37;;;;;;;15.05;8.30;;;20.40;76.80;;;;;;4962750;28;20129;-78
2022/08/19 02:39:03;;;;;;;17.83;8.50;;;20.30;76.80;;;;;;4968247;28;20088;-78
2022/08/19 02:41:32;;;;;;;16.30;8.35;;;20.30;76.90;;;;;;4950392;28;20027;-78
2022/08/19 02:44:00;;;;;;;15.43;8.50;;;20.30;76.90;;;;;;4985048;28;20045;-78
2022/08/19 02:46:28;;;;;;;14.05;7.82;;;20.30;77.00;;;;;;4959673;28;20256;-78
2022/08/19 02:48:57;;;;;;;16.92;8.35;;;20.30;77.10;;;;;;4970086;28;20022;-78
2022/08/19 02:51:33;;;;;;;16.90;8.60;;;20.30;77.30;;;;;;4985476;28;20028;-78
2022/08/19 02:53:59;;;;;;;16.27;8.10;;;20.30;77.60;;;;;;4963055;28;20036;-78
2022/08/19 02:56:27;;;;;;;16.73;8.30;;;20.30;77.40;;;;;;4968351;28;20137;-78
2022/08/19 02:58:54;;;;;;;16.02;8.48;;;20.30;77.50;;;;;;4958378;28;20085;-78
2022/08/19 03:01:26;;;;;;;14.60;7.93;;;20.30;77.60;;;;;;4980241;28;20034;-78
2022/08/19 03:03:53;;;;;;;15.77;7.93;;;20.20;77.70;;;;;;4947992;28;20038;-78
2022/08/19 03:06:19;;;;;;;14.50;7.85;;;20.30;77.70;;;;;;4985460;28;20112;-77
2022/08/19 03:08:48;;;;;;;14.80;8.17;;;20.20;77.60;;;;;;4965720;28;20034;-77
2022/08/19 03:11:26;;;;;;;15.32;7.97;;;20.20;77.70;;;;;;4965333;28;20022;-78
2022/08/19 03:13:53;;;;;;;15.88;7.88;;;20.20;78.40;;;;;;4948297;28;20047;-78
2022/08/19 03:16:24;;;;;;;14.95;7.70;;;20.20;77.70;;;;;;4962797;28;20030;-78
2022/08/19 03:18:49;;;;;;;15.45;7.70;;;20.20;78.60;;;;;;4979649;28;20082;-78
2022/08/19 03:21:25;;;;;;;14.63;7.60;;;20.20;77.70;;;;;;4957030;28;20619;-78
2022/08/19 03:23:55;;;;;;;14.05;7.53;;;20.10;78.20;;;;;;4977687;28;20038;-78
2022/08/19 03:26:20;;;;;;;13.90;7.65;;;20.10;78.00;;;;;;4972835;28;20034;-78
2022/08/19 03:28:49;;;;;;;13.82;7.57;;;20.20;77.80;;;;;;4954384;28;20145;-78
2022/08/19 03:31:22;;;;;;;14.70;7.32;;;20.10;77.90;;;;;;4977407;28;20110;-78
2022/08/19 03:33:49;;;;;;;14.77;7.50;;;20.10;77.90;;;;;;4978120;28;20031;-78
2022/08/19 03:36:22;;;;;;;13.50;7.63;;;20.10;77.90;;;;;;4968553;28;20190;-78
2022/08/19 03:38:55;;;;;;;13.38;7.13;;;20.10;78.20;;;;;;4982454;28;20026;-78
2022/08/19 03:41:26;;;;;;;14.38;6.80;;;20.10;78.10;;;;;;4978619;28;20113;-78
2022/08/19 03:43:53;;;;;;;15.32;7.75;;;20.00;78.00;;;;;;4964599;28;20804;-78
2022/08/19 03:46:21;;;;;;;14.13;7.83;;;20.00;77.90;;;;;;4940463;28;20010;-78
2022/08/19 03:48:53;;;;;;;13.30;7.55;;;20.00;78.10;;;;;;4980086;28;20076;-78
2022/08/19 03:51:35;;;;;;;14.65;7.85;;;20.00;78.10;;;;;;4982341;28;20113;-78
2022/08/19 03:54:04;;;;;;;14.45;7.38;;;19.90;78.80;;;;;;4965661;28;20253;-78
2022/08/19 03:56:30;;;;;;;16.00;7.63;;;19.90;78.10;;;;;;4974077;28;20022;-78
2022/08/19 03:58:57;;;;;;;14.20;7.63;;;19.90;78.10;;;;;;4984701;28;20525;-79
2022/08/19 04:01:28;;;;;;;12.98;7.15;;;19.80;78.20;;;;;;4940728;28;20078;-78
2022/08/19 04:03:56;;;;;;;14.07;7.22;;;19.80;78.30;;;;;;4983021;28;20270;-78
2022/08/19 04:06:31;;;;;;;13.15;6.45;;;19.80;78.40;;;;;;4952932;28;20092;-78
2022/08/19 04:08:59;;;;;;;15.47;6.90;;;19.80;78.80;;;;;;4984419;28;20030;-78
2022/08/19 04:11:28;;;;;;;13.57;7.18;;;19.70;78.50;;;;;;4965901;28;20029;-78
2022/08/19 04:13:55;;;;;;;13.80;7.40;;;19.70;78.60;;;;;;4981915;28;20320;-78
2022/08/19 04:16:24;;;;;;;13.48;7.13;;;19.70;78.60;;;;;;4947428;28;20033;-78
2022/08/19 04:18:50;;;;;;;13.18;7.20;;;19.70;78.80;;;;;;4951426;28;20479;-78
2022/08/19 04:21:24;;;;;;;12.33;6.87;;;19.60;78.70;;;;;;4956975;28;20113;-77
2022/08/19 04:23:50;;;;;;;11.90;6.80;;;19.60;79.10;;;;;;4969371;28;20045;-78
2022/08/19 04:26:19;;;;;;;12.90;7.07;;;19.60;78.90;;;;;;4987198;28;20089;-78
2022/08/19 04:28:46;;;;;;;12.60;6.60;;;19.60;79.10;;;;;;4950659;28;20400;-78
2022/08/19 04:31:17;;;;;;;12.80;6.72;;;19.50;79.00;;;;;;4956734;28;20026;-78
2022/08/19 04:33:43;;;;;;;11.13;6.07;;;19.50;79.40;;;;;;4964750;28;20691;-77
2022/08/19 04:36:26;;;;;;;11.43;6.57;;;19.50;79.10;;;;;;4958566;28;20435;-78
2022/08/19 04:38:58;;;;;;;9.85;5.57;;;19.50;79.80;;;;;;4970633;28;20336;-78
2022/08/19 04:44:09;;;;;;;10.55;5.75;;;19.50;79.40;;;;;;4972382;28;20169;-78
2022/08/19 04:46:35;;;;;;;10.90;5.63;;;19.50;79.50;;;;;;4947246;28;20038;-78
2022/08/19 04:49:04;;;;;;;12.57;5.65;;;19.40;79.50;;;;;;4968661;28;20451;-78
2022/08/19 04:51:32;;;;;;;11.65;5.68;;;19.50;79.60;;;;;;4970707;28;20082;-78
2022/08/19 04:53:59;;;;;;;10.23;5.40;;;19.50;79.60;;;;;;4959589;28;20031;-78
2022/08/19 04:56:26;;;;;;;10.57;5.72;;;19.40;79.60;;;;;;4952432;28;20045;-78
2022/08/19 04:58:53;;;;;;;10.67;5.30;;;19.40;79.70;;;;;;4966623;28;20036;-78
2022/08/19 05:01:21;;;;;;;11.07;5.72;;;19.40;79.80;;;;;;4989650;28;20570;-78
2022/08/19 05:03:48;;;;;;;9.90;5.35;;;19.40;80.00;;;;;;4971577;28;20057;-78
2022/08/19 05:06:16;;;;;;;11.60;5.55;;;19.40;79.90;;;;;;4985069;28;20484;-79
2022/08/19 05:08:43;;;;;;;10.15;5.70;;;19.40;80.00;;;;;;4953372;28;20473;-78
2022/08/19 05:11:15;;;;;;;10.70;5.80;;;19.40;80.00;;;;;;4971179;28;20712;-78
2022/08/19 05:13:43;;;;;;;10.88;5.40;;;19.40;80.40;;;;;;4949616;28;20511;-78
2022/08/19 05:16:10;;;;;;;11.90;6.03;;;19.40;80.20;;;;;;4989699;28;20346;-78
2022/08/19 05:24:09;;;;;;;10.23;5.07;;;19.40;80.30;;;;;;4980912;28;20034;-78
2022/08/19 05:26:47;;;;;;;10.35;5.80;;;19.40;80.30;;;;;;4969468;28;20066;-78
2022/08/19 05:29:19;;;;;;;11.93;5.38;;;19.40;81.00;;;;;;4962563;28;20038;-78
2022/08/19 05:31:48;;;;;;;10.77;5.45;;;19.40;80.80;;;;;;4952386;28;20394;-78
2022/08/19 05:34:14;;;;;;;9.35;5.18;;;19.40;80.60;;;;;;4971054;28;20046;-77
2022/08/19 05:36:43;;;;;;;9.23;5.40;;;19.40;80.60;;;;;;4978266;28;20034;-78
2022/08/19 05:39:13;;;;;;;9.85;4.85;;;19.40;80.80;;;;;;4985857;28;20034;-78
2022/08/19 05:41:49;;;;;;;9.50;5.10;;;19.40;81.10;;;;;;4971172;28;20522;-78
2022/08/19 05:44:16;;;;;;;8.70;4.55;;;19.50;81.70;;;;;;4989078;28;20026;-79
2022/08/19 05:46:48;;;;;;;8.43;4.82;;;19.40;81.30;;;;;;4978944;28;20507;-78
2022/08/19 05:49:15;;;;;;;9.63;4.93;;;19.50;81.60;;;;;;4946607;28;20385;-78
2022/08/19 05:51:42;;;;;;;9.93;4.60;;;19.50;81.50;;;;;;4957062;28;20480;-78
2022/08/19 05:54:08;;;;;;;8.80;4.55;;;19.60;81.60;;;;;;4964967;28;20518;-79
2022/08/19 05:56:37;;;;;;;8.25;4.20;;;19.60;81.60;;;;;;4959758;28;20464;-78
2022/08/19 05:59:10;;;;;;;8.80;4.25;;;19.70;81.80;;;;;;4970348;28;20100;-78
2022/08/19 06:01:37;;;;;;;7.57;4.50;;;19.70;81.90;;;;;;4980026;28;20470;-78
2022/08/19 06:04:04;;;;;;;7.85;3.95;;;19.80;82.10;;;;;;4968894;28;20054;-78
2022/08/19 06:06:29;;;;;;;7.68;3.90;;;19.90;82.40;;;;;;4943320;28;20066;-78
2022/08/19 06:08:55;;;;;;;7.10;4.00;;;19.90;82.70;;;;;;4988384;28;20050;-78
2022/08/19 06:11:22;;;;;;;7.97;4.20;;;20.00;82.90;;;;;;4988006;28;20018;-78
2022/08/19 06:13:52;;;;;;;6.63;3.78;;;20.10;83.10;;;;;;4971468;28;21867;-79
2022/08/19 06:16:22;;;;;;;6.40;3.70;;;20.20;83.20;;;;;;4966192;28;20383;-79
2022/08/19 06:18:55;;;;;;;7.70;3.53;;;20.30;83.30;;;;;;4978816;28;20031;-78
2022/08/19 06:21:23;;;;;;;5.97;3.25;;;20.40;83.50;;;;;;4966009;28;20054;-78
2022/08/19 06:23:50;;;;;;;6.53;3.25;;;20.50;83.40;;;;;;4968407;28;20015;-79
2022/08/19 06:26:18;;;;;;;5.68;3.40;;;20.60;83.40;;;;;;4983828;28;20034;-78
2022/08/19 06:28:46;;;;;;;6.20;3.20;;;20.70;83.20;;;;;;4958016;28;20550;-78
2022/08/19 06:31:17;;;;;;;4.97;2.65;;;20.80;83.20;;;;;;4983108;28;20065;-78
2022/08/19 06:33:44;;;;;;;6.32;3.30;;;20.90;83.10;;;;;;4972558;28;20166;-78
2022/08/19 06:36:33;;;;;;;4.28;2.70;;;21.00;83.00;;;;;;4964622;28;20034;-79
2022/08/19 06:39:01;;;;;;;7.05;3.15;;;21.10;83.10;;;;;;4953022;28;20038;-78
2022/08/19 06:41:28;;;;;;;4.87;2.80;;;21.10;83.00;;;;;;4971375;28;20045;-78
2022/08/19 06:43:54;;;;;;;4.22;2.60;;;21.20;83.10;;;;;;4939165;28;20111;-78
2022/08/19 06:46:20;;;;;;;4.57;2.83;;;21.30;83.10;;;;;;4968553;28;20072;-78
2022/08/19 06:48:46;;;;;;;5.30;2.80;;;21.30;83.10;;;;;;4986321;28;20031;-79
2022/08/19 06:51:20;;;;;;;4.55;2.80;;;21.40;82.90;;;;;;4982756;28;20081;-78
2022/08/19 06:53:47;;;;;;;6.47;3.03;;;21.50;82.70;;;;;;4964109;28;20673;-78
2022/08/19 06:56:18;;;;;;;6.57;2.85;;;21.50;82.50;;;;;;4964999;28;20072;-78
2022/08/19 06:58:44;;;;;;;4.82;2.97;;;21.60;82.50;;;;;;4977756;28;20037;-78
2022/08/19 07:01:10;;;;;;;6.90;2.90;;;21.60;82.30;;;;;;4986615;28;20113;-79
2022/08/19 07:03:37;;;;;;;4.43;2.57;;;21.60;82.30;;;;;;4983745;28;20121;-78
2022/08/19 07:06:12;;;;;;;5.40;2.97;;;21.60;82.20;;;;;;4979433;28;20026;-78
2022/08/19 07:08:42;;;;;;;6.88;3.05;;;21.70;82.20;;;;;;4965133;28;20046;-77
2022/08/19 07:11:12;;;;;;;4.97;3.08;;;21.70;82.30;;;;;;4961170;28;20105;-79
2022/08/19 07:13:39;;;;;;;5.38;2.90;;;21.70;82.30;;;;;;4979324;28;20041;-78
2022/08/19 07:16:11;;;;;;;5.13;2.63;;;21.80;82.50;;;;;;4961552;28;20033;-78
2022/08/19 07:18:38;;;;;;;5.05;3.00;;;21.80;82.60;;;;;;4982960;28;20229;-78
2022/08/19 07:21:13;;;;;;;5.10;2.85;;;21.90;83.00;;;;;;4959420;28;20019;-78
2022/08/19 07:23:39;;;;;;;4.78;2.85;;;21.90;83.10;;;;;;4946031;28;20126;-78
2022/08/19 07:26:19;;;;;;;5.78;3.03;;;22.00;83.10;;;;;;4982428;28;20030;-78
2022/08/19 07:28:47;;;;;;;6.23;2.80;;;22.10;83.10;;;;;;4980818;28;20038;-78
2022/08/19 07:31:17;;;;;;;5.30;2.80;;;22.20;82.90;;;;;;4959640;28;20081;-78
2022/08/19 07:33:45;;;;;;;6.43;3.00;;;22.30;82.70;;;;;;4975394;28;20045;-78
2022/08/19 07:36:14;;;;;;;6.00;3.08;;;22.40;83.40;;;;;;4967573;28;20031;-78
2022/08/19 07:38:42;;;;;;;5.35;3.20;;;22.40;82.60;;;;;;4945518;28;20260;-78
2022/08/19 07:41:11;;;;;;;6.77;2.70;;;22.50;83.00;;;;;;4981105;28;20324;-78
2022/08/19 07:43:37;;;;;;;4.97;2.88;;;22.60;83.40;;;;;;4957680;28;20321;-78
2022/08/19 07:46:03;;;;;;;5.95;3.17;;;22.80;83.30;;;;;;4977219;28;20030;-78
2022/08/19 07:48:29;;;;;;;5.75;3.28;;;22.90;83.00;;;;;;4956108;28;20089;-79
2022/08/19 07:51:01;;;;;;;5.05;2.78;;;22.90;82.60;;;;;;4967036;28;20030;-78
2022/08/19 07:53:27;;;;;;;6.23;3.07;;;23.10;82.20;;;;;;4948810;28;20026;-77
2022/08/19 07:55:53;;;;;;;5.47;3.30;;;23.00;81.70;;;;;;4974568;28;20077;-78
2022/08/19 07:58:21;;;;;;;5.53;3.05;;;23.10;81.50;;;;;;4985580;28;20034;-78
2022/08/19 08:00:49;;;;;;;5.40;3.10;;;23.20;81.40;;;;;;4958409;28;20038;-78
2022/08/19 08:03:18;;;;;;;5.97;3.17;;;23.10;81.30;;;;;;4976312;28;20018;-78
2022/08/19 08:11:14;;;;;;;4.13;2.70;;;23.20;81.50;;;;;;4973610;28;20037;-78
2022/08/19 08:13:41;;;;;;;4.83;2.67;;;23.30;81.70;;;;;;4976773;28;20421;-78
2022/08/19 08:16:07;;;;;;;5.07;2.55;;;23.40;81.50;;;;;;4959761;28;20022;-77
2022/08/19 08:18:34;;;;;;;4.00;2.30;;;23.40;81.50;;;;;;4964733;28;20023;-79
2022/08/19 08:20:59;;;;;;;4.93;2.40;;;23.50;81.60;;;;;;4964007;28;20026;-78
2022/08/19 08:23:26;;;;;;;3.88;2.33;;;23.50;81.40;;;;;;4977009;28;20404;-78
2022/08/19 08:25:55;;;;;;;3.93;2.50;;;23.50;81.30;;;;;;4961457;28;20217;-78
2022/08/19 08:28:21;;;;;;;4.15;2.55;;;23.60;82.10;;;;;;4983352;28;20041;-79
2022/08/19 08:30:48;;;;;;;4.32;2.53;;;23.80;83.40;;;;;;4972479;28;20050;-79
2022/08/19 08:33:23;;;;;;;4.30;2.40;;;24.00;83.40;;;;;;4966531;28;20033;-79
2022/08/19 08:35:49;;;;;;;3.53;2.40;;;24.20;82.80;;;;;;4963951;28;20323;-75
2022/08/19 08:38:17;;;;;;;4.07;2.17;;;24.40;82.50;;;;;;4970890;28;20074;-76
2022/08/19 08:41:03;;;;;;;3.65;2.30;;;24.50;81.40;;;;;;4950391;28;20018;-76
2022/08/19 08:43:43;;;;;;;3.10;2.20;;;24.60;79.70;;;;;;4987537;28;20061;-76
2022/08/19 08:46:15;;;;;;;2.95;2.15;;;24.60;79.00;;;;;;4981661;28;20050;-78
2022/08/19 08:48:53;;;;;;;3.00;1.98;;;24.70;79.20;;;;;;4981292;28;20112;-79
2022/08/19 08:51:23;;;;;;;3.10;1.90;;;24.60;79.20;;;;;;4975411;28;20113;-78
2022/08/19 08:53:53;;;;;;;2.63;1.83;;;24.60;78.80;;;;;;4965104;28;20237;-78
2022/08/19 08:56:19;;;;;;;3.70;1.80;;;24.50;78.70;;;;;;4950501;28;20025;-75
2022/08/19 08:58:56;;;;;;;3.40;1.98;;;24.50;78.80;;;;;;4975046;28;20034;-75
2022/08/19 09:01:22;;;;;;;2.78;1.80;;;24.50;78.50;;;;;;4985832;28;20044;-76
2022/08/19 09:03:48;;;;;;;3.30;1.80;;;24.50;78.90;;;;;;4962513;28;20485;-76
2022/08/19 09:06:36;;;;;;;3.17;1.90;;;24.40;79.20;;;;;;4970411;28;20060;-76
2022/08/19 09:09:19;;;;;;;3.38;1.90;;;24.40;78.40;;;;;;4985395;28;20109;-75
2022/08/19 09:12:03;;;;;;;2.05;1.48;;;24.40;78.40;;;;;;4956971;28;20026;-76
2022/08/19 09:14:31;;;;;;;2.67;1.88;;;24.40;78.70;;;;;;4986586;28;20458;-76
2022/08/19 09:16:59;;;;;;;2.30;1.50;;;24.40;79.00;;;;;;4971665;28;20033;-76
2022/08/19 09:19:25;;;;;;;3.05;1.77;;;24.50;79.10;;;;;;4981410;28;20035;-75
2022/08/19 09:21:51;;;;;;;2.40;1.58;;;24.50;79.20;;;;;;4957930;28;20037;-76
2022/08/19 09:24:17;;;;;;;3.25;1.88;;;24.50;79.20;;;;;;4984733;28;20209;-76
2022/08/19 09:26:43;;;;;;;3.20;1.77;;;24.50;79.10;;;;;;4967063;28;20042;-75
2022/08/19 09:29:10;;;;;;;3.47;1.80;;;24.60;79.00;;;;;;4971331;28;20394;-76
2022/08/19 09:31:36;;;;;;;2.20;1.63;;;24.60;79.00;;;;;;4967586;28;20444;-76
2022/08/19 09:34:04;;;;;;;3.17;2.00;;;24.60;79.00;;;;;;4959561;28;20019;-76
2022/08/19 09:36:33;;;;;;;3.60;2.15;;;24.70;78.90;;;;;;4975789;28;20025;-76
2022/08/19 09:39:00;;;;;;;4.10;1.97;;;24.70;78.60;;;;;;4947186;28;20078;-76
2022/08/19 09:41:26;;;;;;;3.40;1.95;;;24.70;78.60;;;;;;4983853;28;20075;-76
2022/08/19 09:43:55;;;;;;;3.78;2.10;;;24.70;78.70;;;;;;4946580;28;20034;-76
2022/08/19 09:46:22;;;;;;;3.22;2.00;;;24.70;78.60;;;;;;4979070;28;20027;-76
2022/08/19 09:48:51;;;;;;;2.80;2.00;;;24.80;78.90;;;;;;4962759;28;20434;-75
2022/08/19 09:51:20;;;;;;;2.50;1.60;;;24.80;78.70;;;;;;4970805;28;20448;-76
2022/08/19 09:53:49;;;;;;;2.72;1.80;;;24.90;79.00;;;;;;4955821;28;20041;-76
2022/08/19 09:56:17;;;;;;;3.33;1.88;;;25.00;79.00;;;;;;4974934;28;20110;-76
2022/08/19 09:58:43;;;;;;;3.53;1.83;;;25.00;78.80;;;;;;4939368;28;20423;-76
2022/08/19 10:01:15;;;;;;;3.30;2.03;;;25.00;78.60;;;;;;4971438;28;20061;-77
2022/08/19 10:03:40;;;;;;;4.68;2.20;;;25.10;78.20;;;;;;4959218;28;20402;-76
2022/08/19 10:06:06;;;;;;;3.47;2.07;;;25.10;78.10;;;;;;4968509;28;20034;-76
2022/08/19 10:08:35;;;;;;;4.00;1.90;;;25.10;77.90;;;;;;4976366;28;20030;-76
2022/08/19 10:11:02;;;;;;;2.70;1.98;;;25.10;77.80;;;;;;4952008;28;20061;-75
2022/08/19 10:13:29;;;;;;;3.93;2.20;;;25.20;78.10;;;;;;4938562;28;20486;-76
2022/08/19 10:16:03;;;;;;;3.15;2.00;;;25.20;78.40;;;;;;4964808;28;20019;-76
2022/08/19 10:18:29;;;;;;;3.17;1.90;;;25.30;78.80;;;;;;4963831;28;20225;-76
2022/08/19 10:21:08;;;;;;;3.15;1.88;;;25.40;79.20;;;;;;4977272;28;20486;-76
2022/08/19 10:23:36;;;;;;;3.80;2.20;;;25.60;78.30;;;;;;4962931;28;20137;-76
2022/08/19 10:26:05;;;;;;;4.00;2.13;;;25.60;78.40;;;;;;4949072;28;20475;-76
2022/08/19 10:28:37;;;;;;;5.00;2.38;;;25.70;78.50;;;;;;4949895;28;20711;-76
2022/08/19 10:31:19;;;;;;;5.18;2.15;;;25.80;78.40;;;;;;4983259;28;20570;-76
2022/08/19 10:33:46;;;;;;;3.88;2.20;;;25.90;77.10;;;;;;4981540;28;20089;-76
2022/08/19 10:36:17;;;;;;;3.25;2.13;;;26.00;78.20;;;;;;4973503;28;20502;-76
2022/08/19 10:38:45;;;;;;;3.30;2.13;;;26.10;78.00;;;;;;4980817;28;20490;-76
2022/08/19 10:41:20;;;;;;;4.18;2.30;;;26.20;78.00;;;;;;4961734;28;20534;-76
2022/08/19 10:43:46;;;;;;;3.33;2.15;;;26.30;77.20;;;;;;4946262;28;20026;-76
2022/08/19 10:46:14;;;;;;;3.63;2.08;;;26.40;78.10;;;;;;4960712;28;20472;-75
2022/08/19 10:48:41;;;;;;;3.25;2.45;;;26.50;78.00;;;;;;4978436;28;20937;-76
2022/08/19 10:53:52;;;;;;;3.15;2.30;;;26.80;78.40;;;;;;4980556;28;20550;-77
2022/08/19 10:59:04;;;;;;;4.32;2.20;;;27.10;76.70;;;;;;4955490;28;20042;-76
2022/08/19 11:01:32;;;;;;;2.87;2.03;;;27.10;76.20;;;;;;4969968;28;22337;-76
2022/08/19 11:04:03;;;;;;;3.53;2.10;;;27.10;76.00;;;;;;4980112;28;20105;-76
2022/08/19 11:06:29;;;;;;;3.38;2.08;;;27.20;75.80;;;;;;4980042;28;20368;-76
2022/08/19 11:08:55;;;;;;;3.58;1.70;;;27.30;75.70;;;;;;4968328;28;20526;-77
2022/08/19 11:11:22;;;;;;;2.58;1.90;;;27.20;75.20;;;;;;4980256;28;20534;-78
2022/08/19 11:13:49;;;;;;;2.73;1.70;;;27.20;75.00;;;;;;4945608;28;20542;-76
2022/08/19 11:16:29;;;;;;;4.15;1.83;;;27.30;75.40;;;;;;4962093;28;20141;-75
2022/08/19 11:19:01;;;;;;;2.53;1.65;;;27.40;74.60;;;;;;4948796;28;20558;-76
2022/08/19 11:21:34;;;;;;;2.83;1.65;;;27.50;75.70;;;;;;4965974;28;20508;-76
2022/08/19 11:24:11;;;;;;;2.70;1.70;;;27.60;75.20;;;;;;4963421;28;20042;-77
2022/08/19 11:26:39;;;;;;;2.97;1.70;;;27.70;73.40;;;;;;4951245;28;21670;-77
2022/08/19 11:29:06;;;;;;;3.50;1.70;;;27.70;73.60;;;;;;4943226;28;20042;-75
2022/08/19 11:31:35;;;;;;;2.50;1.65;;;27.60;72.90;;;;;;4962417;28;20383;-76
2022/08/19 11:34:04;;;;;;;2.33;1.52;;;27.50;72.40;;;;;;4975876;28;20493;-76
2022/08/19 11:36:32;;;;;;;2.30;1.65;;;27.50;72.50;;;;;;4947924;28;20022;-76
2022/08/19 11:38:58;;;;;;;3.43;1.90;;;27.40;72.80;;;;;;4967898;28;20030;-76
2022/08/19 11:41:24;;;;;;;2.53;1.70;;;27.30;73.10;;;;;;4981988;28;20534;-76
2022/08/19 11:43:53;;;;;;;3.25;1.73;;;27.30;73.20;;;;;;4952408;28;20497;-75
2022/08/19 11:46:19;;;;;;;2.70;1.50;;;27.20;73.30;;;;;;4968710;28;20511;-76
2022/08/19 11:48:45;;;;;;;2.58;1.67;;;27.30;73.60;;;;;;4979823;28;20053;-76
2022/08/19 11:51:18;;;;;;;3.00;2.00;;;27.30;73.70;;;;;;4943318;28;20352;-76
2022/08/19 11:53:45;;;;;;;2.35;1.83;;;27.30;73.30;;;;;;4957663;28;20032;-77
2022/08/19 11:56:11;;;;;;;2.58;1.80;;;27.40;74.00;;;;;;4965757;28;20082;-77
2022/08/19 11:58:38;;;;;;;2.63;1.60;;;27.50;74.00;;;;;;4973690;28;20030;-76
2022/08/19 12:01:17;;;;;;;2.17;1.60;;;27.50;73.90;;;;;;4948417;28;20130;-76
2022/08/19 12:03:44;;;;;;;2.63;1.80;;;27.60;72.70;;;;;;4981018;28;20026;-76
2022/08/19 12:06:28;;;;;;;3.03;1.83;;;27.70;73.30;;;;;;4947147;28;20022;-75
2022/08/19 12:08:55;;;;;;;2.80;1.65;;;27.70;72.50;;;;;;4946480;28;20023;-76
2022/08/19 12:11:21;;;;;;;3.33;1.70;;;27.80;73.80;;;;;;4969658;28;20339;-76
2022/08/19 12:13:47;;;;;;;2.20;1.40;;;27.90;74.30;;;;;;4965031;28;20033;-76
2022/08/19 12:16:19;;;;;;;1.92;1.60;;;28.00;74.50;;;;;;4946679;28;20034;-77
2022/08/19 12:18:50;;;;;;;2.50;1.70;;;28.20;74.10;;;;;;4979081;28;20014;-76
2022/08/19 12:21:21;;;;;;;2.27;1.50;;;28.50;75.20;;;;;;4975108;28;20363;-76
2022/08/19 12:23:48;;;;;;;1.92;1.50;;;28.70;74.80;;;;;;4978079;28;20041;-75
2022/08/19 12:26:14;;;;;;;1.90;1.50;;;29.00;75.00;;;;;;4949243;28;20352;-77
2022/08/19 12:28:41;;;;;;;2.58;1.40;;;29.30;75.30;;;;;;4986183;28;20050;-77
2022/08/19 12:31:07;;;;;;;1.73;1.63;;;29.60;75.10;;;;;;4919473;28;20113;-76
2022/08/19 12:33:33;;;;;;;1.77;1.40;;;29.90;74.90;;;;;;4964631;28;20027;-76
2022/08/19 12:36:05;;;;;;;1.60;1.23;;;30.20;73.70;;;;;;4971454;28;20019;-76
2022/08/19 12:38:32;;;;;;;1.25;1.15;;;30.40;71.50;;;;;;4947344;28;20022;-76
2022/08/19 12:40:58;;;;;;;1.10;1.00;;;30.50;71.30;;;;;;4960944;28;20046;-76
2022/08/19 12:43:24;;;;;;;1.33;1.10;;;30.60;70.00;;;;;;4952906;28;20231;-77
2022/08/19 12:45:50;;;;;;;1.38;1.10;;;30.60;69.00;;;;;;4963410;28;20382;-76
2022/08/19 12:48:16;;;;;;;1.80;1.30;;;30.50;68.40;;;;;;4945882;28;20040;-76
2022/08/19 12:50:46;;;;;;;2.03;1.38;;;30.40;68.30;;;;;;4980660;28;20335;-78
2022/08/19 12:53:13;;;;;;;1.63;1.30;;;30.40;67.70;;;;;;4975645;28;20061;-78
2022/08/19 12:55:39;;;;;;;1.50;1.30;;;30.30;68.00;;;;;;4951117;28;20023;-76
2022/08/19 12:58:04;;;;;;;2.13;1.67;;;30.30;68.20;;;;;;4965756;28;20113;-76
2022/08/19 13:00:32;;;;;;;2.30;1.67;;;30.30;68.20;;;;;;4969866;28;20034;-78
2022/08/19 13:02:58;;;;;;;2.20;1.60;;;30.30;67.80;;;;;;4973464;28;20022;-75
2022/08/19 13:05:29;;;;;;;2.70;1.70;;;30.30;67.60;;;;;;4969585;28;20363;-76
2022/08/19 13:07:57;;;;;;;2.05;1.70;;;30.30;66.80;;;;;;4984366;28;20141;-76
2022/08/19 13:10:29;;;;;;;2.38;1.77;;;30.30;67.00;;;;;;4965561;28;20220;-76